Time;durP1;ratioP1;P1;durP2;ratioP2;P2;SDS_P1;SDS_P2;PMS_P1;PMS_P2;Temp;Humidity;BMP_temperature;BMP_pressure;BME280_temperature;BME280_humidity;BME280_pressure;Samples;Min_cycle;Max_cycle;Signal;HPM_P1;HPM_P2
2023/11/06 00:01:40;;;;;;;5.10;1.40;;;11.00;99.90;;;;;;5029703;28;20549;-67
2023/11/06 00:04:06;;;;;;;7.17;1.63;;;11.00;99.90;;;;;;5030897;28;20038;-66
2023/11/06 00:06:32;;;;;;;4.17;1.50;;;10.90;99.90;;;;;;5027441;28;20052;-66
2023/11/06 00:08:57;;;;;;;4.00;1.97;;;10.90;99.90;;;;;;5032519;28;20074;-67
2023/11/06 00:11:23;;;;;;;5.77;1.53;;;10.90;99.90;;;;;;5026731;28;20090;-67
2023/11/06 00:13:48;;;;;;;7.80;1.50;;;11.00;99.90;;;;;;5034895;28;20025;-67
2023/11/06 00:16:14;;;;;;;6.90;1.83;;;11.00;99.90;;;;;;5028234;28;20045;-67
2023/11/06 00:18:41;;;;;;;3.55;1.48;;;11.00;99.90;;;;;;5029259;28;20070;-67
2023/11/06 00:21:11;;;;;;;2.83;1.58;;;11.10;99.90;;;;;;5023316;28;20030;-67
2023/11/06 00:23:37;;;;;;;6.60;1.90;;;11.00;99.90;;;;;;5031114;28;20725;-67
2023/11/06 00:26:03;;;;;;;3.92;1.30;;;11.00;99.90;;;;;;5028247;28;20026;-67
2023/11/06 00:28:28;;;;;;;7.05;1.73;;;11.00;99.90;;;;;;5031856;28;20339;-67
2023/11/06 00:30:56;;;;;;;8.60;1.73;;;11.00;99.90;;;;;;5038969;28;20541;-68
2023/11/06 00:33:21;;;;;;;3.65;1.42;;;10.90;99.90;;;;;;5028811;28;20087;-68
2023/11/06 00:35:47;;;;;;;12.30;1.90;;;10.90;99.90;;;;;;5031326;28;20107;-67
2023/11/06 00:38:13;;;;;;;6.07;1.47;;;10.90;99.90;;;;;;5030021;28;20175;-67
2023/11/06 00:40:38;;;;;;;5.17;1.60;;;10.90;99.90;;;;;;5029792;28;20021;-68
2023/11/06 00:43:04;;;;;;;5.18;1.42;;;10.80;99.90;;;;;;5031738;28;20052;-68
2023/11/06 00:45:30;;;;;;;5.73;2.10;;;10.80;99.90;;;;;;5026985;28;20448;-68
2023/11/06 00:47:55;;;;;;;9.13;1.60;;;10.80;99.90;;;;;;5032916;28;20083;-68
2023/11/06 00:50:21;;;;;;;5.67;1.03;;;10.70;99.90;;;;;;5029462;28;20393;-66
2023/11/06 00:52:46;;;;;;;3.37;1.33;;;10.80;99.90;;;;;;5038221;28;20100;-68
2023/11/06 00:55:12;;;;;;;5.87;1.97;;;10.90;99.90;;;;;;5032562;28;20041;-67
2023/11/06 00:57:38;;;;;;;2.37;1.23;;;10.90;99.90;;;;;;5030008;28;20055;-67
2023/11/06 01:00:04;;;;;;;4.50;1.20;;;10.90;99.90;;;;;;5037140;28;20477;-67
2023/11/06 01:02:30;;;;;;;;;;;10.90;99.90;;;;;;5028370;28;20033;-68
2023/11/06 01:04:56;;;;;;;4.90;1.30;;;10.90;99.90;;;;;;5027736;28;19959;-67
2023/11/06 01:07:21;;;;;;;4.05;1.45;;;10.90;99.90;;;;;;5037201;28;20534;-67
2023/11/06 01:09:47;;;;;;;5.43;1.10;;;10.90;99.90;;;;;;5030760;28;20104;-67
2023/11/06 01:12:13;;;;;;;6.53;1.20;;;10.90;99.90;;;;;;5036072;28;20540;-67
2023/11/06 01:14:38;;;;;;;4.03;1.60;;;10.90;99.90;;;;;;5035004;28;20031;-67
2023/11/06 01:17:04;;;;;;;3.13;1.43;;;10.90;99.90;;;;;;5032628;28;20457;-66
2023/11/06 01:19:29;;;;;;;5.10;1.70;;;10.80;99.90;;;;;;5035718;28;20032;-66
2023/11/06 01:21:55;;;;;;;7.10;1.50;;;10.90;99.90;;;;;;5033301;28;20009;-67
2023/11/06 01:24:21;;;;;;;5.57;1.23;;;10.90;99.90;;;;;;5028905;28;20465;-67
2023/11/06 01:26:46;;;;;;;11.03;1.80;;;10.90;99.90;;;;;;5028486;28;20544;-67
2023/11/06 01:29:12;;;;;;;6.43;1.37;;;10.80;99.90;;;;;;5031377;28;20032;-67
2023/11/06 01:31:38;;;;;;;6.35;1.60;;;10.80;99.90;;;;;;5037498;28;20021;-67
2023/11/06 01:34:04;;;;;;;3.28;1.35;;;10.80;99.90;;;;;;5037854;28;20265;-67
2023/11/06 01:36:30;;;;;;;4.40;1.30;;;10.80;99.90;;;;;;5030922;28;20492;-67
2023/11/06 01:38:56;;;;;;;6.77;1.57;;;10.90;99.90;;;;;;5038919;28;20040;-67
2023/11/06 01:41:21;;;;;;;2.67;1.30;;;10.90;99.90;;;;;;5035687;28;20033;-67
2023/11/06 01:43:47;;;;;;;3.60;1.20;;;10.90;99.90;;;;;;5031849;28;20095;-67
2023/11/06 01:46:13;;;;;;;5.83;1.30;;;10.90;99.90;;;;;;5034409;28;20045;-67
2023/11/06 01:48:41;;;;;;;3.45;1.20;;;10.90;99.90;;;;;;5035530;28;20025;-67
2023/11/06 01:51:08;;;;;;;4.63;1.02;;;10.90;99.90;;;;;;5029111;28;20512;-67
2023/11/06 01:53:34;;;;;;;;;;;10.90;99.90;;;;;;5028781;28;20111;-67
2023/11/06 01:56:00;;;;;;;5.82;1.27;;;11.00;99.90;;;;;;5035823;28;19909;-67
2023/11/06 01:58:28;;;;;;;3.45;1.35;;;11.00;99.90;;;;;;5029388;28;20031;-67
2023/11/06 02:00:55;;;;;;;4.22;0.80;;;11.10;99.90;;;;;;5038576;28;20033;-68
2023/11/06 02:03:21;;;;;;;4.40;1.65;;;11.00;99.90;;;;;;5030684;28;20029;-68
2023/11/06 02:05:47;;;;;;;;;;;11.10;99.90;;;;;;5030562;28;20021;-67
2023/11/06 02:08:15;;;;;;;4.95;1.15;;;11.10;99.90;;;;;;5032543;28;19955;-68
2023/11/06 02:10:42;;;;;;;5.60;1.50;;;11.00;99.90;;;;;;5033102;28;20100;-67
2023/11/06 02:13:08;;;;;;;5.57;1.10;;;11.10;99.90;;;;;;5032849;28;20037;-67
2023/11/06 02:15:34;;;;;;;9.97;1.20;;;11.00;99.90;;;;;;5031975;28;20405;-67
2023/11/06 02:17:59;;;;;;;5.90;1.40;;;11.00;99.90;;;;;;5030928;28;20033;-67
2023/11/06 02:20:25;;;;;;;5.00;1.00;;;11.00;99.90;;;;;;5034497;28;20885;-67
2023/11/06 02:23:01;;;;;;;5.40;1.38;;;10.90;99.90;;;;;;5033354;28;20026;-67
2023/11/06 02:25:26;;;;;;;1.85;0.90;;;11.00;99.90;;;;;;5031384;28;20041;-67
2023/11/06 02:27:52;;;;;;;5.13;1.10;;;11.00;99.90;;;;;;5036691;28;20025;-67
2023/11/06 02:30:17;;;;;;;7.90;1.00;;;11.00;99.90;;;;;;5027159;28;20060;-68
2023/11/06 02:32:43;;;;;;;2.77;1.27;;;11.00;99.90;;;;;;5024945;28;20030;-67
2023/11/06 02:35:08;;;;;;;4.97;1.03;;;11.00;99.90;;;;;;5031813;28;20029;-68
2023/11/06 02:37:34;;;;;;;3.03;1.07;;;11.00;99.90;;;;;;5030224;28;20500;-68
2023/11/06 02:40:00;;;;;;;2.00;0.90;;;11.00;99.90;;;;;;5034735;28;20025;-68
2023/11/06 02:42:25;;;;;;;4.40;1.10;;;11.10;99.90;;;;;;5025707;28;20041;-68
2023/11/06 02:44:51;;;;;;;4.63;0.80;;;11.00;99.90;;;;;;5031549;28;20041;-68
2023/11/06 02:47:17;;;;;;;4.20;1.20;;;11.00;99.90;;;;;;5035581;28;20460;-67
2023/11/06 02:49:42;;;;;;;4.13;0.93;;;11.00;99.90;;;;;;5025024;28;20034;-68
2023/11/06 02:52:08;;;;;;;3.83;1.00;;;10.90;99.90;;;;;;5032824;28;20026;-67
2023/11/06 02:54:34;;;;;;;6.83;1.10;;;11.10;99.90;;;;;;5035961;28;20614;-67
2023/11/06 02:56:59;;;;;;;6.97;0.73;;;11.00;99.90;;;;;;5029341;28;20282;-68
2023/11/06 02:59:25;;;;;;;2.17;0.97;;;11.00;99.90;;;;;;5030968;28;20029;-68
2023/11/06 03:01:51;;;;;;;3.47;0.63;;;11.00;99.90;;;;;;5025657;28;20029;-68
2023/11/06 03:04:17;;;;;;;2.45;0.80;;;11.00;99.90;;;;;;5025992;28;20112;-68
2023/11/06 03:06:45;;;;;;;;;;;11.00;99.90;;;;;;5026156;28;20026;-68
2023/11/06 03:09:13;;;;;;;3.50;0.90;;;10.90;99.90;;;;;;5031087;28;19963;-67
2023/11/06 03:11:38;;;;;;;4.47;1.02;;;10.80;99.90;;;;;;5033409;28;20041;-67
2023/11/06 03:14:05;;;;;;;4.33;1.23;;;10.80;99.90;;;;;;5035815;28;20083;-68
2023/11/06 03:16:35;;;;;;;2.15;0.80;;;10.80;99.90;;;;;;5028346;28;20025;-67
2023/11/06 03:19:03;;;;;;;3.67;1.83;;;10.70;99.90;;;;;;5030347;28;20043;-67
2023/11/06 03:21:28;;;;;;;2.65;1.35;;;10.60;99.90;;;;;;5036094;28;20035;-67
2023/11/06 03:23:54;;;;;;;2.87;0.70;;;10.60;99.90;;;;;;5032833;28;20417;-67
2023/11/06 03:26:21;;;;;;;6.03;0.80;;;10.60;99.90;;;;;;5023913;28;20481;-67
2023/11/06 03:28:46;;;;;;;2.42;1.10;;;10.60;99.90;;;;;;5030664;28;20044;-67
2023/11/06 03:31:12;;;;;;;5.33;1.00;;;10.70;99.90;;;;;;5033863;28;20033;-67
2023/11/06 03:33:37;;;;;;;9.87;1.33;;;10.80;99.90;;;;;;5028282;28;20025;-67
2023/11/06 03:36:04;;;;;;;4.73;1.10;;;10.70;99.90;;;;;;5033885;28;20045;-67
2023/11/06 03:38:30;;;;;;;3.40;0.80;;;10.80;99.90;;;;;;5029598;28;20029;-68
2023/11/06 03:40:55;;;;;;;4.20;0.93;;;10.90;99.10;;;;;;5034696;28;20032;-67
2023/11/06 03:43:22;;;;;;;3.10;0.70;;;10.90;98.60;;;;;;5037949;28;20457;-67
2023/11/06 03:45:47;;;;;;;5.13;1.20;;;11.00;99.60;;;;;;5037534;28;20291;-67
2023/11/06 03:48:13;;;;;;;2.70;0.87;;;11.00;98.10;;;;;;5030948;28;20090;-67
2023/11/06 03:50:42;;;;;;;1.93;0.93;;;11.10;99.20;;;;;;5020180;28;20107;-67
2023/11/06 03:53:09;;;;;;;3.20;1.58;;;11.00;98.80;;;;;;5037075;28;20017;-67
2023/11/06 03:55:35;;;;;;;3.20;0.65;;;11.00;98.60;;;;;;5034564;28;20041;-67
2023/11/06 03:58:01;;;;;;;3.10;1.08;;;11.00;98.60;;;;;;5028418;28;20034;-67
2023/11/06 04:00:27;;;;;;;3.50;0.87;;;11.00;98.80;;;;;;5035147;28;20036;-66
2023/11/06 04:02:52;;;;;;;1.90;0.70;;;11.00;99.30;;;;;;5027721;28;20021;-67
2023/11/06 04:05:18;;;;;;;3.73;0.80;;;11.00;99.90;;;;;;5029207;28;20145;-68
2023/11/06 04:07:44;;;;;;;6.40;1.40;;;10.90;99.90;;;;;;5030228;28;20307;-67
2023/11/06 04:10:10;;;;;;;2.63;0.90;;;10.90;99.90;;;;;;5028258;28;20037;-67
2023/11/06 04:12:37;;;;;;;4.78;0.80;;;10.90;99.90;;;;;;5034434;28;20021;-67
2023/11/06 04:15:05;;;;;;;4.10;1.10;;;10.90;99.90;;;;;;5036129;28;20041;-68
2023/11/06 04:17:31;;;;;;;4.93;1.00;;;10.90;99.90;;;;;;5029095;28;20029;-67
2023/11/06 04:19:57;;;;;;;2.70;0.98;;;10.80;99.90;;;;;;5030016;28;20049;-67
2023/11/06 04:22:23;;;;;;;2.53;0.70;;;10.90;99.90;;;;;;5031577;28;20029;-67
2023/11/06 04:24:49;;;;;;;6.20;0.85;;;10.90;99.90;;;;;;5028058;28;20396;-67
2023/11/06 04:27:14;;;;;;;4.07;0.90;;;10.90;99.90;;;;;;5030711;28;20040;-67
2023/11/06 04:29:40;;;;;;;1.20;0.67;;;10.90;99.90;;;;;;5019160;28;20152;-68
2023/11/06 04:32:06;;;;;;;6.27;0.97;;;10.90;99.90;;;;;;5027107;28;20031;-67
2023/11/06 04:34:32;;;;;;;3.65;1.08;;;10.90;99.90;;;;;;5033882;28;20771;-68
2023/11/06 04:36:57;;;;;;;6.23;1.13;;;10.90;99.90;;;;;;5037696;28;20044;-67
2023/11/06 04:39:23;;;;;;;1.47;0.80;;;11.00;99.90;;;;;;5038300;28;20513;-67
2023/11/06 04:41:49;;;;;;;5.43;1.00;;;11.00;99.90;;;;;;5032096;28;20049;-67
2023/11/06 04:44:14;;;;;;;3.67;0.63;;;10.90;99.90;;;;;;5042989;28;20291;-67
2023/11/06 04:46:40;;;;;;;0.80;0.60;;;11.00;99.90;;;;;;5040163;28;20021;-67
2023/11/06 04:49:05;;;;;;;6.80;1.20;;;11.00;99.90;;;;;;5032209;28;20033;-67
2023/11/06 04:51:31;;;;;;;3.93;1.00;;;11.00;99.90;;;;;;5025836;28;20134;-68
2023/11/06 04:53:56;;;;;;;4.53;1.07;;;11.00;99.90;;;;;;5031261;28;20648;-68
2023/11/06 04:56:23;;;;;;;2.63;0.80;;;10.90;99.90;;;;;;5038306;28;20032;-67
2023/11/06 04:58:48;;;;;;;1.27;0.70;;;10.90;99.90;;;;;;5030560;28;20025;-67
2023/11/06 05:01:18;;;;;;;2.40;0.70;;;10.90;99.90;;;;;;5030498;28;20025;-67
2023/11/06 05:03:43;;;;;;;1.73;0.80;;;10.90;99.90;;;;;;5037374;28;20037;-67
2023/11/06 05:06:09;;;;;;;2.47;0.87;;;10.90;99.90;;;;;;5029961;28;20053;-67
2023/11/06 05:08:36;;;;;;;2.87;0.90;;;10.90;99.90;;;;;;5034274;28;20087;-67
2023/11/06 05:11:01;;;;;;;3.72;1.48;;;11.00;99.90;;;;;;5033831;28;20211;-68
2023/11/06 05:13:27;;;;;;;5.33;0.97;;;11.00;99.90;;;;;;5040003;28;20111;-67
2023/11/06 05:15:53;;;;;;;7.77;0.87;;;11.00;99.90;;;;;;5031256;28;20280;-68
2023/11/06 05:18:19;;;;;;;3.40;0.77;;;11.10;99.90;;;;;;5032348;28;20033;-67
2023/11/06 05:20:44;;;;;;;6.47;1.10;;;11.00;99.90;;;;;;5041530;28;20536;-67
2023/11/06 05:23:11;;;;;;;4.63;0.70;;;11.00;99.90;;;;;;5038341;28;20030;-67
2023/11/06 05:25:37;;;;;;;1.45;0.80;;;11.10;99.90;;;;;;5035780;28;20048;-67
2023/11/06 05:28:03;;;;;;;4.28;0.90;;;11.10;99.90;;;;;;5042095;28;20064;-68
2023/11/06 05:30:29;;;;;;;3.08;0.77;;;11.10;99.90;;;;;;5040570;28;20400;-67
2023/11/06 05:32:57;;;;;;;4.97;1.20;;;11.10;99.90;;;;;;5037940;28;20038;-67
2023/11/06 05:35:22;;;;;;;4.40;0.60;;;11.00;99.90;;;;;;5039274;28;20105;-67
2023/11/06 05:37:48;;;;;;;4.40;0.83;;;11.00;99.90;;;;;;5032711;28;20066;-67
2023/11/06 05:40:14;;;;;;;3.83;0.70;;;11.10;99.90;;;;;;5031655;28;21073;-67
2023/11/06 05:42:40;;;;;;;4.60;1.00;;;11.10;99.90;;;;;;5039379;28;20039;-67
2023/11/06 05:45:09;;;;;;;3.65;0.63;;;11.00;99.90;;;;;;5032431;28;20575;-67
2023/11/06 05:47:35;;;;;;;2.47;0.70;;;11.00;99.90;;;;;;5029763;28;20025;-68
2023/11/06 05:50:01;;;;;;;3.67;1.02;;;11.00;99.90;;;;;;5021886;28;20022;-67
2023/11/06 05:52:26;;;;;;;6.20;0.77;;;11.00;99.90;;;;;;5033324;28;20025;-68
2023/11/06 05:54:52;;;;;;;1.47;0.90;;;10.90;99.90;;;;;;5028847;28;20055;-68
2023/11/06 05:57:18;;;;;;;2.37;1.30;;;10.90;99.90;;;;;;5036375;28;20078;-67
2023/11/06 05:59:44;;;;;;;5.47;0.80;;;10.90;99.90;;;;;;5035107;28;20029;-67
2023/11/06 06:02:10;;;;;;;4.65;1.00;;;10.90;99.90;;;;;;5035749;28;20025;-67
2023/11/06 06:04:38;;;;;;;1.33;0.83;;;10.90;99.90;;;;;;5034234;28;20040;-67
2023/11/06 06:07:08;;;;;;;2.67;1.05;;;10.90;99.90;;;;;;5026181;28;20049;-67
2023/11/06 06:09:34;;;;;;;2.97;1.17;;;10.90;99.90;;;;;;5035926;28;20025;-67
2023/11/06 06:12:00;;;;;;;6.70;1.25;;;10.90;99.90;;;;;;5036165;28;20020;-67
2023/11/06 06:14:25;;;;;;;8.77;1.38;;;10.90;99.90;;;;;;5032325;28;20037;-68
2023/11/06 06:16:51;;;;;;;6.47;1.10;;;10.90;99.90;;;;;;5030728;28;20024;-67
2023/11/06 06:19:18;;;;;;;4.73;1.40;;;10.90;99.90;;;;;;5038168;28;20106;-67
2023/11/06 06:21:44;;;;;;;3.15;1.02;;;10.90;99.90;;;;;;5032092;28;20396;-68
2023/11/06 06:24:11;;;;;;;3.15;1.20;;;10.90;99.90;;;;;;5029812;28;20045;-67
2023/11/06 06:26:39;;;;;;;4.43;1.20;;;10.90;99.90;;;;;;5038684;28;20036;-68
2023/11/06 06:29:05;;;;;;;5.05;1.20;;;10.90;99.90;;;;;;5035129;28;20033;-67
2023/11/06 06:31:31;;;;;;;2.88;1.63;;;10.90;99.90;;;;;;5029488;28;20018;-66
2023/11/06 06:33:58;;;;;;;4.33;1.30;;;10.90;99.90;;;;;;5028348;28;20075;-66
2023/11/06 06:36:24;;;;;;;3.33;0.95;;;10.90;99.90;;;;;;5023787;28;20346;-66
2023/11/06 06:38:51;;;;;;;15.02;1.55;;;10.90;99.90;;;;;;5021645;28;20556;-66
2023/11/06 06:41:17;;;;;;;3.35;1.20;;;10.90;99.90;;;;;;5024167;28;20397;-67
2023/11/06 06:43:42;;;;;;;7.40;1.60;;;10.90;99.90;;;;;;5022463;28;20076;-67
2023/11/06 06:46:09;;;;;;;5.68;1.40;;;10.90;99.90;;;;;;5025411;28;20099;-67
2023/11/06 06:48:35;;;;;;;;;;;10.90;99.90;;;;;;5023519;28;20025;-67
2023/11/06 06:51:00;;;;;;;10.52;1.10;;;10.80;99.90;;;;;;5020268;28;19920;-67
2023/11/06 06:53:26;;;;;;;2.10;1.10;;;10.90;99.90;;;;;;5021365;28;20034;-67
2023/11/06 06:55:51;;;;;;;2.37;1.03;;;10.80;99.90;;;;;;5024618;28;20038;-67
2023/11/06 06:58:17;;;;;;;2.77;1.10;;;10.90;99.90;;;;;;5022379;28;20021;-66
2023/11/06 07:00:44;;;;;;;3.60;1.30;;;10.90;99.90;;;;;;5027837;28;20096;-67
2023/11/06 07:03:09;;;;;;;3.70;1.02;;;10.90;99.90;;;;;;5022787;28;20031;-66
2023/11/06 07:05:35;;;;;;;3.93;0.80;;;11.00;99.90;;;;;;5026266;28;20050;-66
2023/11/06 07:08:01;;;;;;;1.80;0.80;;;11.00;99.90;;;;;;5038096;28;20033;-66
2023/11/06 07:10:27;;;;;;;7.15;1.20;;;11.00;99.90;;;;;;5029437;28;20313;-66
2023/11/06 07:12:55;;;;;;;4.50;1.10;;;11.10;99.90;;;;;;5020357;28;20029;-66
2023/11/06 07:15:24;;;;;;;1.77;0.90;;;11.10;99.90;;;;;;5026478;28;20022;-66
2023/11/06 07:17:50;;;;;;;5.30;1.67;;;11.10;99.90;;;;;;5022649;28;20028;-66
2023/11/06 07:20:16;;;;;;;3.93;0.90;;;11.20;99.90;;;;;;5020334;28;20083;-66
2023/11/06 07:22:42;;;;;;;6.53;1.45;;;11.20;99.90;;;;;;5025725;28;20029;-66
2023/11/06 07:25:09;;;;;;;7.00;1.10;;;11.30;99.90;;;;;;5020560;28;20131;-66
2023/11/06 07:27:35;;;;;;;3.00;1.15;;;11.20;99.90;;;;;;5018476;28;20551;-66
2023/11/06 07:30:00;;;;;;;2.38;1.10;;;11.30;99.90;;;;;;5022784;28;20025;-66
2023/11/06 07:32:26;;;;;;;6.40;1.10;;;11.40;99.90;;;;;;5018233;28;20108;-67
2023/11/06 07:34:52;;;;;;;3.20;1.00;;;11.40;99.90;;;;;;5021387;28;20083;-67
2023/11/06 07:37:17;;;;;;;4.20;1.37;;;11.60;99.90;;;;;;5024303;28;20401;-67
2023/11/06 07:39:43;;;;;;;4.70;1.37;;;11.70;99.90;;;;;;5020529;28;20117;-67
2023/11/06 07:42:12;;;;;;;5.67;1.30;;;11.80;99.90;;;;;;5019701;28;20044;-67
2023/11/06 07:44:39;;;;;;;7.38;1.17;;;11.90;99.90;;;;;;5023841;28;20053;-68
2023/11/06 07:47:06;;;;;;;6.22;1.50;;;12.00;99.90;;;;;;5021559;28;20501;-66
2023/11/06 07:49:32;;;;;;;3.75;1.40;;;12.00;99.90;;;;;;5015327;28;20098;-66
2023/11/06 07:51:57;;;;;;;3.97;1.17;;;12.00;99.90;;;;;;5019386;28;20483;-67
2023/11/06 07:54:23;;;;;;;3.23;1.10;;;12.20;99.90;;;;;;5016578;28;20501;-67
2023/11/06 07:56:50;;;;;;;4.43;1.43;;;12.20;99.40;;;;;;5013447;28;20034;-67
2023/11/06 07:59:16;;;;;;;4.70;1.00;;;12.30;99.90;;;;;;5018084;28;20033;-68
2023/11/06 08:01:42;;;;;;;2.90;1.00;;;12.40;99.90;;;;;;5011874;28;20036;-70
2023/11/06 08:04:07;;;;;;;5.77;1.73;;;12.60;99.90;;;;;;5023521;28;20049;-67
2023/11/06 08:06:33;;;;;;;7.75;1.77;;;13.40;98.40;;;;;;5020117;28;20087;-68
2023/11/06 08:08:59;;;;;;;3.03;1.08;;;14.10;95.50;;;;;;5020998;28;20037;-70
2023/11/06 08:11:26;;;;;;;4.10;1.20;;;13.30;95.20;;;;;;5024045;28;20056;-68
2023/11/06 08:13:51;;;;;;;3.40;1.00;;;13.10;95.80;;;;;;5016011;28;20021;-68
2023/11/06 08:16:17;;;;;;;3.20;1.07;;;12.90;97.10;;;;;;5015705;28;20742;-69
2023/11/06 08:18:43;;;;;;;3.90;1.00;;;12.90;96.00;;;;;;5015536;28;20044;-68
2023/11/06 08:21:10;;;;;;;4.73;1.10;;;13.90;95.30;;;;;;5025474;28;20029;-68
2023/11/06 08:23:35;;;;;;;2.40;0.90;;;17.40;87.50;;;;;;5021655;28;20022;-68
2023/11/06 08:26:01;;;;;;;2.50;1.10;;;18.30;80.60;;;;;;5023303;28;20052;-68
2023/11/06 08:28:27;;;;;;;4.27;1.53;;;16.30;83.60;;;;;;5019355;28;20022;-68
2023/11/06 08:30:52;;;;;;;4.57;1.15;;;20.20;75.30;;;;;;5016637;28;20136;-68
2023/11/06 08:33:19;;;;;;;3.40;1.03;;;21.90;68.70;;;;;;5024349;28;20072;-68
2023/11/06 08:35:45;;;;;;;3.33;1.20;;;21.80;68.40;;;;;;5027129;28;20018;-68
2023/11/06 08:38:11;;;;;;;;;;;21.90;67.30;;;;;;5022891;28;20034;-68
2023/11/06 08:40:36;;;;;;;4.45;1.35;;;22.60;65.20;;;;;;5022432;28;19963;-67
2023/11/06 08:43:04;;;;;;;4.13;0.80;;;19.90;66.30;;;;;;5022910;28;20065;-67
2023/11/06 08:45:29;;;;;;;3.40;0.95;;;17.10;76.20;;;;;;5024796;28;20288;-67
2023/11/06 08:47:55;;;;;;;1.67;0.73;;;15.60;81.10;;;;;;5024790;28;20034;-68
2023/11/06 08:50:21;;;;;;;9.47;1.07;;;15.10;84.10;;;;;;5022147;28;20026;-68
2023/11/06 08:52:46;;;;;;;4.95;1.17;;;15.10;85.90;;;;;;5014970;28;20267;-68
2023/11/06 08:55:12;;;;;;;5.00;1.27;;;15.80;86.70;;;;;;5019805;28;20048;-68
2023/11/06 08:57:38;;;;;;;4.07;0.90;;;15.70;82.20;;;;;;5018791;28;20021;-68
2023/11/06 09:00:08;;;;;;;1.67;0.75;;;14.90;85.60;;;;;;5026008;28;20489;-68
2023/11/06 09:02:34;;;;;;;2.55;0.90;;;14.70;85.00;;;;;;5015217;28;20500;-68
2023/11/06 09:05:00;;;;;;;174.38;8.30;;;15.00;86.90;;;;;;5024205;28;20060;-67
2023/11/06 09:07:27;;;;;;;2.97;0.87;;;14.80;86.40;;;;;;5023007;28;20065;-67
2023/11/06 09:09:52;;;;;;;;;;;15.30;86.70;;;;;;5018189;28;20044;-67
2023/11/06 09:12:18;;;;;;;2.80;1.25;;;15.40;84.40;;;;;;5022282;28;19913;-68
2023/11/06 09:14:43;;;;;;;3.80;0.80;;;15.60;85.40;;;;;;5022991;28;20029;-67
2023/11/06 09:17:09;;;;;;;2.40;0.77;;;15.50;85.50;;;;;;5023588;28;20033;-68
2023/11/06 09:19:34;;;;;;;1.77;0.83;;;15.90;86.40;;;;;;5022892;28;20036;-68
2023/11/06 09:22:00;;;;;;;2.50;0.73;;;15.70;84.30;;;;;;5022899;28;20487;-68
2023/11/06 09:24:28;;;;;;;3.73;0.97;;;15.40;84.40;;;;;;5040984;28;20184;-68
2023/11/06 09:26:54;;;;;;;1.85;0.60;;;15.00;84.90;;;;;;5026346;28;20379;-68
2023/11/06 09:29:20;;;;;;;4.30;0.80;;;14.80;86.00;;;;;;5029233;28;20036;-68
2023/11/06 09:31:47;;;;;;;4.13;0.60;;;14.70;87.30;;;;;;5022825;28;20050;-68
2023/11/06 09:34:13;;;;;;;1.92;0.63;;;14.60;89.30;;;;;;5023766;28;20029;-69
2023/11/06 09:36:38;;;;;;;1.03;0.70;;;14.60;86.90;;;;;;5027581;28;20059;-71
2023/11/06 09:39:06;;;;;;;2.70;0.67;;;14.40;88.00;;;;;;5026352;28;20307;-68
2023/11/06 09:41:32;;;;;;;2.97;0.80;;;14.40;86.30;;;;;;5020910;28;20040;-68
2023/11/06 09:43:59;;;;;;;8.50;1.30;;;14.30;88.70;;;;;;5020803;28;20045;-68
2023/11/06 09:46:26;;;;;;;2.03;0.88;;;14.10;90.30;;;;;;5017948;28;20092;-68
2023/11/06 09:48:54;;;;;;;1.88;1.08;;;14.00;89.20;;;;;;5021034;28;20029;-68
2023/11/06 09:51:29;;;;;;;1.58;0.95;;;14.00;90.20;;;;;;5021532;28;20112;-67
2023/11/06 09:53:55;;;;;;;3.60;0.98;;;14.00;92.00;;;;;;5020943;28;20494;-67
2023/11/06 09:56:21;;;;;;;6.88;0.98;;;13.90;92.00;;;;;;5017815;28;20112;-67
2023/11/06 09:58:46;;;;;;;9.97;1.07;;;13.90;92.70;;;;;;5022604;28;20442;-67
2023/11/06 10:01:12;;;;;;;3.50;0.70;;;13.90;92.80;;;;;;5030067;28;20085;-67
2023/11/06 10:03:38;;;;;;;5.57;1.20;;;14.00;92.20;;;;;;5023396;28;20033;-68
2023/11/06 10:06:05;;;;;;;1.45;0.80;;;14.00;92.80;;;;;;5023932;28;20042;-67
2023/11/06 10:08:33;;;;;;;5.18;0.90;;;14.10;91.70;;;;;;5025469;28;20053;-70
2023/11/06 10:11:01;;;;;;;2.42;1.08;;;14.10;92.70;;;;;;5023059;28;20063;-68
2023/11/06 10:13:27;;;;;;;2.92;1.00;;;14.10;91.30;;;;;;5027552;28;20029;-68
2023/11/06 10:15:53;;;;;;;;;;;14.10;91.80;;;;;;5025029;28;20025;-68
2023/11/06 10:18:20;;;;;;;1.27;0.90;;;14.10;91.00;;;;;;5025037;28;20411;-68
2023/11/06 10:20:47;;;;;;;;;;;14.20;91.30;;;;;;5025220;28;20033;-68
2023/11/06 10:23:25;;;;;;;3.00;0.93;;;14.20;92.70;;;;;;5023724;28;19909;-68
2023/11/06 10:25:53;;;;;;;1.70;0.80;;;14.20;92.40;;;;;;5024646;28;20041;-68
2023/11/06 10:28:19;;;;;;;2.15;0.90;;;14.20;91.00;;;;;;5025383;28;20624;-68
2023/11/06 10:30:49;;;;;;;2.15;0.70;;;14.30;91.00;;;;;;5025572;28;20059;-68
2023/11/06 10:33:15;;;;;;;0.95;0.60;;;14.20;91.20;;;;;;5027660;28;20025;-67
2023/11/06 10:35:41;;;;;;;2.83;1.10;;;14.20;90.20;;;;;;5023838;28;20029;-67
2023/11/06 10:38:07;;;;;;;6.10;1.10;;;14.10;90.80;;;;;;5025219;28;20036;-67
2023/11/06 10:40:34;;;;;;;1.45;0.70;;;14.20;91.50;;;;;;5030170;28;20047;-67
2023/11/06 10:43:04;;;;;;;1.45;0.63;;;14.20;91.20;;;;;;5021555;28;20084;-67
2023/11/06 10:45:32;;;;;;;1.45;0.80;;;14.10;90.40;;;;;;5022770;28;20116;-68
2023/11/06 10:48:09;;;;;;;2.55;0.80;;;14.10;91.50;;;;;;5023734;28;20121;-68
2023/11/06 10:50:37;;;;;;;2.00;1.08;;;14.10;90.60;;;;;;5025662;28;20025;-68
2023/11/06 10:53:06;;;;;;;6.15;0.98;;;14.10;91.80;;;;;;5024383;28;20048;-68
2023/11/06 10:55:33;;;;;;;2.97;0.85;;;14.00;92.10;;;;;;5026289;28;20451;-67
2023/11/06 10:57:59;;;;;;;1.90;0.88;;;14.00;91.20;;;;;;5024871;28;20432;-67
2023/11/06 11:00:25;;;;;;;;;;;14.00;92.10;;;;;;5027166;28;20061;-67
2023/11/06 11:02:52;;;;;;;1.60;1.08;;;13.90;91.60;;;;;;5025874;28;19952;-67
2023/11/06 11:05:23;;;;;;;3.95;0.70;;;13.90;93.20;;;;;;5024448;28;20516;-68
2023/11/06 11:07:50;;;;;;;1.85;0.80;;;14.00;91.60;;;;;;5022621;28;20513;-68
2023/11/06 11:10:18;;;;;;;2.03;0.93;;;14.10;92.40;;;;;;5025443;28;20089;-68
2023/11/06 11:12:49;;;;;;;2.72;0.75;;;14.00;92.00;;;;;;5018831;28;20117;-68
2023/11/06 11:15:23;;;;;;;3.17;0.88;;;13.90;91.00;;;;;;5029921;28;20030;-68
2023/11/06 11:18:04;;;;;;;0.82;0.60;;;14.00;91.70;;;;;;5023178;28;20034;-68
2023/11/06 11:20:53;;;;;;;1.50;0.77;;;14.00;91.30;;;;;;5024845;28;20374;-68
2023/11/06 11:23:45;;;;;;;1.42;0.60;;;14.10;91.70;;;;;;5019613;28;20044;-68
2023/11/06 11:26:12;;;;;;;6.43;1.08;;;14.10;91.60;;;;;;5022088;28;20520;-68
2023/11/06 11:28:57;;;;;;;3.28;1.10;;;14.20;92.00;;;;;;5026767;28;20037;-68
2023/11/06 11:31:35;;;;;;;4.38;0.80;;;14.30;92.30;;;;;;5023751;28;20529;-68
2023/11/06 11:34:02;;;;;;;1.77;1.10;;;14.30;91.70;;;;;;5022983;28;20034;-69
2023/11/06 11:36:31;;;;;;;;;;;14.30;90.00;;;;;;5022197;28;20823;-68
2023/11/06 11:38:59;;;;;;;4.43;0.82;;;14.20;89.40;;;;;;5021607;28;19910;-68
2023/11/06 11:41:25;;;;;;;1.15;1.05;;;14.20;91.10;;;;;;5019593;28;20021;-68
2023/11/06 11:44:05;;;;;;;1.35;0.80;;;14.20;90.90;;;;;;5025918;28;20781;-68
2023/11/06 11:46:48;;;;;;;2.03;0.80;;;14.20;90.20;;;;;;5024144;28;20041;-68
2023/11/06 11:49:36;;;;;;;2.25;0.82;;;14.30;91.70;;;;;;5022665;28;20041;-68
2023/11/06 11:52:03;;;;;;;0.90;0.80;;;14.40;89.70;;;;;;5020110;28;20041;-69
2023/11/06 11:54:32;;;;;;;;;;;14.50;89.20;;;;;;5024321;28;20389;-68
2023/11/06 11:57:02;;;;;;;2.08;0.85;;;14.60;89.90;;;;;;5021015;28;19951;-68
2023/11/06 11:59:29;;;;;;;1.98;1.00;;;14.60;89.10;;;;;;5026934;28;20756;-67
2023/11/06 12:01:55;;;;;;;2.63;0.88;;;14.60;90.80;;;;;;5021369;28;20033;-68
2023/11/06 12:04:22;;;;;;;2.42;0.77;;;14.70;89.40;;;;;;5024719;28;20622;-68
2023/11/06 12:07:05;;;;;;;3.15;0.77;;;14.70;91.20;;;;;;5021487;28;20037;-68
2023/11/06 12:09:48;;;;;;;1.23;0.70;;;14.70;90.80;;;;;;5023085;28;20040;-68
2023/11/06 12:12:27;;;;;;;1.80;1.00;;;14.70;89.40;;;;;;5023449;28;20026;-67
2023/11/06 12:14:54;;;;;;;1.88;0.80;;;14.80;90.20;;;;;;5023229;28;20405;-68
2023/11/06 12:17:35;;;;;;;2.08;0.55;;;14.70;87.70;;;;;;5019921;28;20083;-68
2023/11/06 12:20:08;;;;;;;1.27;0.50;;;14.60;89.50;;;;;;5022910;28;20091;-69
2023/11/06 12:22:44;;;;;;;3.63;1.20;;;14.60;87.90;;;;;;5021715;28;20393;-68
2023/11/06 12:25:10;;;;;;;2.17;0.60;;;14.60;90.50;;;;;;5022894;28;20033;-69
2023/11/06 12:27:37;;;;;;;2.35;0.73;;;14.60;91.30;;;;;;5022402;28;20136;-69
2023/11/06 12:30:06;;;;;;;1.23;0.57;;;14.70;91.50;;;;;;5019676;28;20053;-69
2023/11/06 12:32:36;;;;;;;1.50;0.40;;;14.70;89.40;;;;;;5022499;28;20017;-69
2023/11/06 12:35:12;;;;;;;2.53;0.80;;;14.70;88.40;;;;;;5023577;28;20694;-69
2023/11/06 12:38:00;;;;;;;2.58;0.68;;;14.70;90.60;;;;;;5022382;28;20045;-69
2023/11/06 12:40:27;;;;;;;1.92;0.70;;;14.70;90.90;;;;;;5023213;28;20457;-70
2023/11/06 12:42:58;;;;;;;0.93;0.70;;;14.70;87.70;;;;;;5021691;28;20148;-70
2023/11/06 12:45:38;;;;;;;0.55;0.50;;;14.70;89.10;;;;;;5022638;28;20132;-69
2023/11/06 12:48:21;;;;;;;1.52;0.65;;;14.80;86.70;;;;;;5024774;28;20041;-69
2023/11/06 12:51:04;;;;;;;1.95;0.57;;;14.80;86.10;;;;;;5032599;28;20025;-70